createdAt,value
2022-12-17T00:01:05.646Z,120.63
2022-12-17T00:03:52.062Z,120.20
2022-12-17T00:06:38.323Z,118.30
2022-12-17T00:09:24.201Z,121.17
2022-12-17T00:12:10.285Z,128.63
2022-12-17T00:14:55.926Z,136.33
2022-12-17T00:17:43.263Z,132.70
2022-12-17T00:20:29.457Z,137.67
2022-12-17T00:23:18.922Z,143.77
2022-12-17T00:26:09.905Z,140.83
2022-12-17T00:28:55.732Z,138.43
2022-12-17T00:31:42.089Z,141.13
2022-12-17T00:34:29.215Z,136.57
2022-12-17T00:37:15.401Z,140.50
2022-12-17T00:40:01.136Z,134.87
2022-12-17T00:42:47.015Z,136.47
2022-12-17T00:45:33.009Z,137.53
2022-12-17T00:48:18.832Z,138.73
2022-12-17T00:51:06.229Z,140.87
2022-12-17T00:53:51.790Z,141.90
2022-12-17T00:56:37.416Z,129.33
2022-12-17T00:59:37.730Z,126.13
2022-12-17T01:02:23.693Z,118.73
2022-12-17T01:05:09.741Z,126.80
2022-12-17T01:07:57.206Z,137.70
2022-12-17T01:10:43.177Z,134.27
2022-12-17T01:13:31.573Z,136.73
2022-12-17T01:16:21.987Z,143.13
2022-12-17T01:19:08.036Z,149.13
2022-12-17T01:21:53.835Z,141.07
2022-12-17T01:24:43.783Z,144.07
2022-12-17T01:27:30.270Z,137.10
2022-12-17T01:30:15.701Z,141.63
2022-12-17T01:33:01.555Z,140.00
2022-12-17T01:35:47.722Z,136.07
2022-12-17T01:38:34.741Z,141.83
2022-12-17T01:41:23.016Z,140.57
2022-12-17T01:44:08.742Z,133.30
2022-12-17T01:46:57.921Z,147.83
2022-12-17T01:49:45.316Z,144.13
2022-12-17T01:52:33.031Z,142.40
2022-12-17T01:55:30.668Z,139.90
2022-12-17T01:58:18.014Z,132.60
2022-12-17T02:01:03.670Z,134.20
2022-12-17T02:03:49.689Z,134.40
2022-12-17T02:06:43.984Z,133.43
2022-12-17T02:09:36.321Z,142.23
2022-12-17T02:12:31.680Z,145.33
2022-12-17T02:15:24.439Z,141.77
2022-12-17T02:18:15.408Z,133.60
2022-12-17T02:21:04.632Z,136.53
2022-12-17T02:23:57.452Z,140.33
2022-12-17T02:26:55.493Z,151.27
2022-12-17T02:29:43.271Z,140.07
2022-12-17T02:32:31.184Z,141.93
2022-12-17T02:35:19.311Z,150.70
2022-12-17T02:38:06.184Z,148.60
2022-12-17T02:40:53.893Z,136.80
2022-12-17T02:43:45.310Z,141.47
2022-12-17T02:46:31.904Z,137.70
2022-12-17T02:49:17.791Z,149.83
2022-12-17T02:52:04.127Z,161.87
2022-12-17T02:54:51.129Z,177.13
2022-12-17T02:57:41.018Z,170.17
2022-12-17T03:00:32.171Z,170.80
2022-12-17T03:03:17.915Z,173.80
2022-12-17T03:06:03.489Z,156.80
2022-12-17T03:08:49.027Z,169.80
2022-12-17T03:11:34.933Z,165.93
2022-12-17T03:14:20.828Z,154.37
2022-12-17T03:17:08.311Z,159.33
2022-12-17T03:19:54.058Z,162.97
2022-12-17T03:22:39.934Z,145.57
2022-12-17T03:25:26.924Z,159.90
2022-12-17T03:28:12.341Z,148.03
2022-12-17T03:30:58.219Z,139.63
2022-12-17T03:33:45.581Z,132.03
2022-12-17T03:36:31.414Z,139.03
2022-12-17T03:39:17.449Z,127.23
2022-12-17T03:42:04.282Z,135.47
2022-12-17T03:44:49.775Z,146.33
2022-12-17T03:47:35.944Z,144.97
2022-12-17T03:50:24.093Z,140.87
2022-12-17T03:53:09.992Z,131.90
2022-12-17T03:55:55.904Z,135.30
2022-12-17T03:58:41.710Z,125.80
2022-12-17T04:01:27.656Z,133.50
2022-12-17T04:04:13.586Z,140.43
2022-12-17T04:07:01.154Z,130.80
2022-12-17T04:09:47.006Z,147.13
2022-12-17T04:12:35.472Z,146.47
2022-12-17T04:15:21.436Z,146.70
2022-12-17T04:18:07.725Z,157.53
2022-12-17T04:20:53.634Z,171.33
2022-12-17T04:23:49.429Z,147.63
2022-12-17T04:26:35.063Z,161.53
2022-12-17T04:29:20.826Z,165.90
2022-12-17T04:32:07.047Z,165.63
2022-12-17T04:34:52.814Z,160.67
2022-12-17T04:37:38.569Z,173.50
2022-12-17T04:40:28.029Z,159.57
2022-12-17T04:43:13.573Z,168.07
2022-12-17T04:45:59.583Z,171.87
2022-12-17T04:48:45.187Z,157.00
2022-12-17T04:51:30.985Z,155.70
2022-12-17T04:54:16.903Z,162.67
2022-12-17T04:57:04.232Z,155.90
2022-12-17T04:59:49.939Z,168.37
2022-12-17T05:02:43.041Z,175.67
2022-12-17T05:05:29.361Z,170.37
2022-12-17T05:08:15.738Z,182.03
2022-12-17T05:11:04.317Z,187.47
2022-12-17T05:13:51.559Z,190.17
2022-12-17T05:16:37.381Z,174.10
2022-12-17T05:19:23.090Z,193.47
2022-12-17T05:22:08.786Z,167.70
2022-12-17T05:24:54.283Z,165.80
2022-12-17T05:27:40.274Z,170.63
2022-12-17T05:30:28.456Z,176.57
2022-12-17T05:33:17.725Z,177.00
2022-12-17T05:36:03.967Z,174.30
2022-12-17T05:38:49.907Z,171.33
2022-12-17T05:41:35.490Z,169.03
2022-12-17T05:44:21.449Z,158.47
2022-12-17T05:47:08.385Z,157.57
2022-12-17T05:49:53.902Z,162.30
2022-12-17T05:52:42.565Z,178.83
2022-12-17T05:55:28.164Z,167.23
2022-12-17T05:58:20.678Z,176.57
2022-12-17T06:01:06.607Z,179.60
2022-12-17T06:03:54.118Z,195.70
2022-12-17T06:06:39.892Z,193.03
2022-12-17T06:09:26.605Z,179.13
2022-12-17T06:12:12.316Z,173.07
2022-12-17T06:14:59.166Z,167.80
2022-12-17T06:17:44.978Z,170.47
2022-12-17T06:20:32.068Z,180.43
2022-12-17T06:23:19.232Z,194.60
2022-12-17T06:26:05.203Z,197.33
2022-12-17T06:28:51.065Z,183.03
2022-12-17T06:31:37.137Z,194.57
2022-12-17T06:34:22.658Z,185.30
2022-12-17T06:37:09.993Z,187.97
2022-12-17T06:39:55.801Z,181.87
2022-12-17T06:42:41.735Z,197.37
2022-12-17T06:45:27.849Z,199.13
2022-12-17T06:48:20.635Z,195.43
2022-12-17T06:51:06.614Z,182.70
2022-12-17T06:53:54.038Z,170.07
2022-12-17T06:56:42.774Z,158.70
2022-12-17T06:59:29.053Z,153.53
2022-12-17T07:02:14.628Z,160.47
2022-12-17T07:05:00.287Z,168.87
2022-12-17T07:07:46.187Z,159.17
2022-12-17T07:10:33.647Z,156.40
2022-12-17T07:13:23.591Z,180.17
2022-12-17T07:16:10.384Z,180.07
2022-12-17T07:18:56.791Z,178.13
2022-12-17T07:21:43.284Z,174.80
2022-12-17T07:24:29.130Z,165.70
2022-12-17T07:27:16.272Z,173.80
2022-12-17T07:30:13.621Z,174.00
2022-12-17T07:32:59.414Z,194.57
2022-12-17T07:35:45.145Z,173.90
2022-12-17T07:38:36.184Z,182.60
2022-12-17T07:41:21.730Z,172.93
2022-12-17T07:44:08.832Z,161.73
2022-12-17T07:46:54.500Z,175.27
2022-12-17T07:49:39.962Z,163.43
2022-12-17T07:52:25.482Z,162.70
2022-12-17T07:55:14.285Z,171.53
2022-12-17T07:58:04.322Z,175.03
2022-12-17T08:00:51.962Z,171.00
2022-12-17T08:03:37.967Z,162.80
2022-12-17T08:06:24.370Z,171.07
2022-12-17T08:09:10.039Z,161.90
2022-12-17T08:12:04.335Z,171.40
2022-12-17T08:14:49.863Z,190.57
2022-12-17T08:17:37.080Z,184.70
2022-12-17T08:20:23.786Z,198.73
2022-12-17T08:23:14.912Z,223.20
2022-12-17T08:26:00.539Z,215.03
2022-12-17T08:28:50.882Z,235.70
2022-12-17T08:31:38.002Z,228.03
2022-12-17T08:34:25.511Z,221.60
2022-12-17T08:37:11.834Z,232.13
2022-12-17T08:39:57.806Z,226.27
2022-12-17T08:42:43.298Z,230.13
2022-12-17T08:45:29.930Z,236.97
2022-12-17T08:48:23.484Z,237.63
2022-12-17T08:51:10.753Z,239.97
2022-12-17T08:53:56.764Z,235.27
2022-12-17T08:56:42.921Z,245.67
2022-12-17T08:59:28.740Z,251.03
2022-12-17T09:02:14.429Z,247.40
2022-12-17T09:05:00.269Z,255.20
2022-12-17T09:07:47.699Z,249.80
2022-12-17T09:10:44.923Z,248.83
2022-12-17T09:13:30.648Z,242.33
2022-12-17T09:16:17.054Z,249.70
2022-12-17T09:19:02.890Z,257.77
2022-12-17T09:21:49.430Z,259.87
2022-12-17T09:24:36.547Z,241.90
2022-12-17T09:27:22.657Z,248.03
2022-12-17T09:30:08.443Z,255.87
2022-12-17T09:32:54.188Z,249.57
2022-12-17T09:35:40.232Z,220.37
2022-12-17T09:38:26.000Z,231.87
2022-12-17T09:41:13.340Z,222.37
2022-12-17T09:44:05.385Z,239.23
2022-12-17T09:46:58.653Z,220.17
2022-12-17T09:49:46.898Z,226.80
2022-12-17T09:52:40.077Z,221.50
2022-12-17T09:55:37.168Z,220.57
2022-12-17T09:58:25.133Z,220.07
2022-12-17T10:01:12.536Z,221.70
2022-12-17T10:04:02.227Z,203.97
2022-12-17T10:06:48.944Z,213.23
2022-12-17T10:09:37.439Z,209.83
2022-12-17T10:12:33.162Z,193.50
2022-12-17T10:15:20.514Z,198.17
2022-12-17T10:18:06.314Z,193.07
2022-12-17T10:20:55.151Z,185.93
2022-12-17T10:23:45.055Z,181.70
2022-12-17T10:26:36.325Z,180.70
2022-12-17T10:29:24.551Z,189.73
2022-12-17T10:32:13.703Z,185.83
2022-12-17T10:35:05.726Z,181.90
2022-12-17T10:37:54.404Z,168.27
2022-12-17T10:40:45.068Z,178.50
2022-12-17T10:43:49.450Z,173.10
2022-12-17T10:46:42.925Z,175.47
2022-12-17T10:49:35.631Z,181.53
2022-12-17T10:52:24.524Z,170.80
2022-12-17T10:55:20.395Z,175.77
2022-12-17T10:58:08.836Z,173.00
2022-12-17T11:00:57.662Z,169.80
2022-12-17T11:03:47.562Z,159.60
2022-12-17T11:06:42.749Z,153.37
2022-12-17T11:09:36.943Z,155.20
2022-12-17T11:12:30.481Z,144.80
2022-12-17T11:15:22.926Z,137.13
2022-12-17T11:18:11.688Z,143.77
2022-12-17T11:21:06.099Z,128.10
2022-12-17T11:23:56.464Z,143.37
2022-12-17T11:26:45.740Z,134.60
2022-12-17T11:29:32.645Z,135.80
2022-12-17T11:32:42.401Z,133.77
2022-12-17T11:35:36.391Z,133.27
2022-12-17T11:38:33.989Z,141.57
2022-12-17T11:41:34.435Z,132.97
2022-12-17T11:44:30.387Z,136.23
2022-12-17T11:47:21.469Z,129.40
2022-12-17T11:50:25.385Z,124.13
2022-12-17T11:53:25.910Z,111.80
2022-12-17T11:56:21.105Z,107.13
2022-12-17T11:59:11.524Z,97.17
2022-12-17T12:02:06.958Z,95.00
2022-12-17T12:05:12.011Z,93.60
2022-12-17T12:08:05.224Z,87.87
2022-12-17T12:10:59.188Z,85.70
2022-12-17T12:13:54.850Z,85.70
2022-12-17T12:16:49.022Z,78.27
2022-12-17T12:19:40.373Z,75.33
2022-12-17T12:22:33.980Z,73.87
2022-12-17T12:25:33.715Z,70.43
2022-12-17T12:28:28.818Z,65.87
2022-12-17T12:31:22.096Z,66.13
2022-12-17T12:34:14.021Z,59.50
2022-12-17T12:37:02.164Z,51.07
2022-12-17T12:39:55.294Z,51.67
2022-12-17T12:42:46.345Z,49.30
2022-12-17T12:45:57.027Z,48.10
2022-12-17T12:48:52.750Z,44.87
2022-12-17T12:51:43.085Z,44.10
2022-12-17T12:54:49.424Z,36.97
2022-12-17T12:57:50.579Z,32.40
2022-12-17T13:00:47.104Z,34.00
2022-12-17T13:03:44.776Z,35.77
2022-12-17T13:06:14.832Z,37.23
2022-12-17T13:08:44.573Z,34.03
2022-12-17T13:11:30.191Z,32.47
2022-12-17T13:14:06.096Z,30.60
2022-12-17T13:16:54.424Z,30.67
2022-12-17T13:19:35.623Z,31.23
2022-12-17T13:22:28.508Z,30.63
2022-12-17T13:25:16.329Z,31.20
2022-12-17T13:27:45.380Z,30.73
2022-12-17T13:30:22.223Z,31.23
2022-12-17T13:33:03.343Z,34.10
2022-12-17T13:35:40.300Z,35.57
2022-12-17T13:38:17.659Z,35.60
2022-12-17T13:40:56.167Z,32.27
2022-12-17T13:43:28.607Z,34.80
2022-12-17T13:45:57.610Z,28.83
2022-12-17T13:48:28.981Z,33.97
2022-12-17T13:50:59.830Z,34.53
2022-12-17T13:53:28.959Z,32.77
2022-12-17T13:55:59.712Z,35.70
2022-12-17T13:58:30.455Z,33.77
2022-12-17T14:01:10.930Z,34.33
2022-12-17T14:06:33.467Z,31.73
2022-12-17T14:09:02.372Z,33.47
2022-12-17T14:11:51.145Z,32.37
2022-12-17T14:14:28.000Z,32.87
2022-12-17T14:16:57.078Z,31.67
2022-12-17T14:19:26.351Z,33.17
2022-12-17T14:21:55.447Z,32.23
2022-12-17T14:24:27.347Z,30.57
2022-12-17T14:26:59.235Z,33.43
2022-12-17T14:29:30.640Z,33.77
2022-12-17T14:32:01.788Z,33.40
2022-12-17T14:34:41.057Z,33.53
2022-12-17T14:37:19.916Z,34.47
2022-12-17T14:39:49.723Z,33.87
2022-12-17T14:42:30.440Z,37.17
2022-12-17T14:45:00.743Z,36.93
2022-12-17T14:47:30.890Z,36.80
2022-12-17T14:50:02.526Z,35.07
2022-12-17T14:52:44.038Z,35.57
2022-12-17T14:55:28.240Z,39.80
2022-12-17T14:58:15.519Z,42.50
2022-12-17T15:00:45.916Z,48.93
2022-12-17T15:03:21.612Z,42.43
2022-12-17T15:05:54.414Z,44.00
2022-12-17T15:08:23.146Z,47.37
2022-12-17T15:10:51.839Z,48.03
2022-12-17T15:13:21.935Z,45.10
2022-12-17T15:15:50.221Z,55.27
2022-12-17T15:18:18.654Z,54.87
2022-12-17T15:20:47.186Z,54.03
2022-12-17T15:23:17.831Z,53.57
2022-12-17T15:25:47.213Z,56.60
2022-12-17T15:28:18.479Z,53.67
2022-12-17T15:30:49.140Z,57.90
2022-12-17T15:33:18.004Z,61.03
2022-12-17T15:35:46.404Z,56.70
2022-12-17T15:38:14.829Z,58.67
2022-12-17T15:40:43.204Z,63.83
2022-12-17T15:43:11.147Z,66.07
2022-12-17T15:45:40.439Z,69.03
2022-12-17T15:48:11.004Z,68.67
2022-12-17T15:50:39.568Z,68.37
2022-12-17T15:53:08.050Z,77.33
2022-12-17T15:55:36.842Z,70.97
2022-12-17T15:58:06.031Z,75.57
2022-12-17T16:00:34.735Z,72.53
2022-12-17T16:03:03.192Z,81.10
2022-12-17T16:05:32.936Z,81.47
2022-12-17T16:08:02.701Z,83.70
2022-12-17T16:10:31.768Z,88.60
2022-12-17T16:13:00.125Z,88.03
2022-12-17T16:15:28.513Z,95.23
2022-12-17T16:17:56.931Z,97.33
2022-12-17T16:20:26.207Z,101.97
2022-12-17T16:22:55.974Z,102.67
2022-12-17T16:25:24.324Z,101.27
2022-12-17T16:27:53.092Z,108.83
2022-12-17T16:30:21.479Z,105.77
2022-12-17T16:32:49.884Z,108.50
2022-12-17T16:35:18.316Z,107.00
2022-12-17T16:37:47.075Z,114.43
2022-12-17T16:40:16.841Z,113.30
2022-12-17T16:42:45.200Z,111.67
2022-12-17T16:45:13.628Z,112.30
2022-12-17T16:47:41.956Z,115.10
2022-12-17T16:50:10.287Z,112.87
2022-12-17T16:52:38.615Z,113.10
2022-12-17T16:55:07.533Z,113.87
2022-12-17T16:57:37.292Z,113.70
2022-12-17T17:00:06.299Z,112.37
2022-12-17T17:02:34.875Z,115.10
2022-12-17T17:05:03.446Z,114.43
2022-12-17T17:07:31.844Z,116.90
2022-12-17T17:10:00.178Z,120.63
2022-12-17T17:12:28.538Z,124.73
2022-12-17T17:14:58.313Z,133.47
2022-12-17T17:17:55.770Z,126.10
2022-12-17T17:20:15.734Z,133.93
2022-12-17T17:22:45.482Z,135.77
2022-12-17T17:25:13.872Z,134.17
2022-12-17T17:27:42.287Z,130.00
2022-12-17T17:30:13.525Z,136.83
2022-12-17T17:32:41.905Z,142.73
2022-12-17T17:35:10.583Z,140.40
2022-12-17T17:37:39.671Z,140.87
2022-12-17T17:40:09.333Z,149.23
2022-12-17T17:42:37.741Z,148.33
2022-12-17T17:45:08.801Z,147.67
2022-12-17T17:47:38.515Z,146.03
2022-12-17T17:50:07.835Z,157.37
2022-12-17T17:52:36.238Z,151.47
2022-12-17T17:55:05.027Z,155.33
2022-12-17T17:57:33.393Z,157.00
2022-12-17T18:00:02.612Z,165.13
2022-12-17T18:02:31.541Z,159.33
2022-12-17T18:05:01.396Z,170.47
2022-12-17T18:07:29.826Z,161.23
2022-12-17T18:09:59.744Z,163.43
2022-12-17T18:12:45.517Z,170.77
2022-12-17T18:15:15.737Z,166.53
2022-12-17T18:17:46.385Z,173.93
2022-12-17T18:20:16.388Z,172.30
2022-12-17T18:22:46.466Z,178.73
2022-12-17T18:25:15.599Z,183.33
2022-12-17T18:27:44.053Z,198.93
2022-12-17T18:30:13.763Z,188.10
2022-12-17T18:32:42.128Z,185.23
2022-12-17T18:35:11.096Z,193.83
2022-12-17T18:37:41.295Z,183.70
2022-12-17T18:40:10.648Z,191.83
2022-12-17T18:42:56.209Z,184.37
2022-12-17T18:45:24.561Z,180.53
2022-12-17T18:47:53.293Z,180.17
2022-12-17T18:50:21.681Z,189.77
2022-12-17T18:52:51.380Z,179.60
2022-12-17T18:55:20.031Z,190.20
2022-12-17T18:57:48.374Z,186.73
2022-12-17T19:00:17.166Z,179.67
2022-12-17T19:02:45.643Z,192.90
2022-12-17T19:05:14.166Z,191.30
2022-12-17T19:07:42.508Z,188.77
2022-12-17T19:10:12.531Z,188.33
2022-12-17T19:12:40.914Z,188.30
2022-12-17T19:15:10.263Z,192.83
2022-12-17T19:17:38.821Z,188.83
2022-12-17T19:20:08.205Z,191.23
2022-12-17T19:22:36.552Z,196.27
2022-12-17T19:25:06.080Z,185.40
2022-12-17T19:27:35.770Z,189.37
2022-12-17T19:30:04.420Z,199.40
2022-12-17T19:32:33.847Z,206.03
2022-12-17T19:35:02.288Z,198.40
2022-12-17T19:37:30.901Z,211.03
2022-12-17T19:39:59.240Z,218.03
2022-12-17T19:42:33.476Z,217.53
2022-12-17T19:45:05.364Z,228.17
2022-12-17T19:47:33.842Z,230.77
2022-12-17T19:50:02.563Z,230.00
2022-12-17T19:52:31.136Z,236.40
2022-12-17T19:54:59.450Z,239.20
2022-12-17T19:57:27.831Z,216.87
2022-12-17T19:59:56.263Z,231.43
2022-12-17T20:02:30.986Z,234.07
2022-12-17T20:05:01.075Z,244.37
2022-12-17T20:07:29.432Z,220.80
2022-12-17T20:09:57.784Z,227.47
2022-12-17T20:12:26.135Z,232.07
2022-12-17T20:14:54.606Z,246.53
2022-12-17T20:17:23.085Z,231.97
2022-12-17T20:19:53.872Z,239.33
2022-12-17T20:22:23.542Z,231.73
2022-12-17T20:24:53.211Z,239.57
2022-12-17T20:27:21.716Z,231.77
2022-12-17T20:29:50.081Z,230.07
2022-12-17T20:32:20.902Z,233.67
2022-12-17T20:34:49.372Z,237.17
2022-12-17T20:37:19.072Z,226.60
2022-12-17T20:39:47.389Z,232.67
2022-12-17T20:42:17.668Z,211.10
2022-12-17T20:44:51.563Z,238.57
2022-12-17T20:47:21.768Z,246.83
2022-12-17T20:49:50.247Z,244.83
2022-12-17T20:52:19.999Z,252.43
2022-12-17T20:54:49.348Z,236.33
2022-12-17T20:57:17.903Z,241.17
2022-12-17T20:59:46.393Z,234.97
2022-12-17T21:02:14.811Z,241.13
2022-12-17T21:04:43.303Z,223.67
2022-12-17T21:07:11.565Z,236.40
2022-12-17T21:09:41.353Z,237.37
2022-12-17T21:12:12.446Z,233.10
2022-12-17T21:14:40.813Z,236.73
2022-12-17T21:17:09.275Z,223.23
2022-12-17T21:19:37.820Z,212.13
2022-12-17T21:22:06.777Z,228.53
2022-12-17T21:24:37.256Z,219.33
2022-12-17T21:27:12.737Z,223.97
2022-12-17T21:29:42.909Z,227.33
2022-12-17T21:32:11.311Z,231.90
2022-12-17T21:34:39.829Z,218.47
2022-12-17T21:37:09.584Z,236.60
2022-12-17T21:39:38.210Z,235.33
2022-12-17T21:42:25.407Z,218.17
2022-12-17T21:44:53.779Z,219.33
2022-12-17T21:47:22.350Z,220.73
2022-12-17T21:49:50.710Z,200.77
2022-12-17T21:52:19.056Z,235.43
2022-12-17T21:54:47.919Z,225.27
2022-12-17T21:57:17.636Z,236.13
2022-12-17T21:59:45.951Z,228.43
2022-12-17T22:02:14.585Z,235.13
2022-12-17T22:04:43.119Z,243.27
2022-12-17T22:07:19.022Z,221.27
2022-12-17T22:10:24.181Z,209.50
2022-12-17T22:12:57.505Z,234.37
2022-12-17T22:15:28.425Z,208.53
2022-12-17T22:18:03.414Z,247.20
2022-12-17T22:20:31.877Z,218.20
2022-12-17T22:23:00.173Z,214.43
2022-12-17T22:25:28.770Z,223.27
2022-12-17T22:27:58.486Z,235.77
2022-12-17T22:30:44.100Z,219.33
2022-12-17T22:33:42.580Z,236.10
2022-12-17T22:37:19.837Z,223.43
2022-12-17T22:42:41.377Z,233.80
2022-12-17T22:44:49.260Z,194.80
2022-12-17T22:44:53.101Z,213.00
2022-12-17T22:47:22.866Z,211.60
2022-12-17T22:49:51.417Z,225.10
2022-12-17T22:52:20.406Z,217.30
2022-12-17T22:54:49.131Z,232.50
2022-12-17T22:57:35.266Z,208.27
2022-12-17T23:00:12.831Z,210.13
2022-12-17T23:02:41.262Z,207.47
2022-12-17T23:05:09.787Z,208.60
2022-12-17T23:07:38.195Z,201.03
2022-12-17T23:10:07.227Z,197.37
2022-12-17T23:12:54.386Z,212.13
2022-12-17T23:15:27.250Z,223.50
2022-12-17T23:17:57.504Z,206.47
2022-12-17T23:20:27.165Z,220.57
2022-12-17T23:22:55.728Z,207.03
2022-12-17T23:25:24.494Z,199.20
2022-12-17T23:27:53.156Z,204.23
2022-12-17T23:30:21.732Z,217.43
2022-12-17T23:32:52.791Z,207.60
2022-12-17T23:35:21.368Z,198.40
2022-12-17T23:37:50.351Z,195.40
2022-12-17T23:40:18.988Z,205.37
2022-12-17T23:42:47.276Z,204.50
2022-12-17T23:45:15.667Z,188.27
2022-12-17T23:47:44.008Z,172.47
2022-12-17T23:50:14.382Z,182.07
2022-12-17T23:52:42.730Z,176.83
2022-12-17T23:55:11.702Z,155.80
2022-12-17T23:57:40.192Z,158.97
